Terminal Aerodrome Forecast
Issued by NWS Wilmington, OH

Current Version | Previous Version | Text Only | Print | Product List | Glossary Off
Versions: 1 2 3 4 5 6 7 8 9 10 11 12 13 14

000
FTUS41 KILN 281100
TAFCMH
TAF
KCMH 281132Z 2812/2912 03004KT P6SM SKC
     FM281400 05005KT P6SM SCT100
     FM282300 08003KT P6SM SCT250=

USA.gov is the U.S. government's official web portal to all federal, state and local government web resources and services.